createdAt,value
2019-06-26T00:01:05.231Z,21.20
2019-06-26T00:06:07.739Z,26.73
2019-06-26T00:11:10.261Z,32.03
2019-06-26T00:16:12.841Z,33.70
2019-06-26T00:21:15.325Z,22.87
2019-06-26T00:26:17.839Z,23.27
2019-06-26T00:31:21.396Z,23.57
2019-06-26T00:36:23.908Z,32.07
2019-06-26T00:41:26.343Z,22.37
2019-06-26T00:46:28.874Z,28.17
2019-06-26T00:51:31.391Z,27.27
2019-06-26T00:56:34.134Z,20.33
2019-06-26T01:01:36.676Z,25.43
2019-06-26T01:06:44.907Z,26.73
2019-06-26T01:11:47.632Z,24.73
2019-06-26T01:16:50.083Z,37.87
2019-06-26T01:21:52.524Z,26.67
2019-06-26T01:26:55.224Z,25.13
2019-06-26T01:31:57.808Z,24.93
2019-06-26T01:37:00.953Z,38.07
2019-06-26T01:42:03.754Z,25.77
2019-06-26T01:47:07.903Z,27.80
2019-06-26T01:52:10.404Z,38.97
2019-06-26T01:57:12.884Z,27.03
2019-06-26T02:02:15.345Z,23.53
2019-06-26T02:07:17.815Z,31.50
2019-06-26T02:12:20.318Z,42.77
2019-06-26T02:17:22.755Z,37.53
2019-06-26T02:22:25.207Z,31.67
2019-06-26T02:27:27.699Z,39.20
2019-06-26T02:32:30.349Z,37.43
2019-06-26T02:37:32.916Z,37.87
2019-06-26T02:42:35.368Z,30.10
2019-06-26T02:47:37.918Z,39.60
2019-06-26T02:52:40.365Z,50.33
2019-06-26T02:57:42.780Z,46.90
2019-06-26T03:02:45.371Z,27.67
2019-06-26T03:07:48.613Z,42.53
2019-06-26T03:12:51.185Z,44.27
2019-06-26T03:17:55.709Z,39.13
2019-06-26T03:22:58.182Z,34.10
2019-06-26T03:28:00.957Z,34.37
2019-06-26T03:33:03.408Z,35.63
2019-06-26T03:38:06.508Z,31.67
2019-06-26T03:43:09.014Z,34.43
2019-06-26T03:48:12.214Z,31.13
2019-06-26T03:53:14.729Z,38.80
2019-06-26T03:58:18.291Z,46.23
2019-06-26T04:03:20.965Z,36.73
2019-06-26T04:08:24.218Z,45.80
2019-06-26T04:13:26.743Z,35.03
2019-06-26T04:18:29.336Z,26.40
2019-06-26T04:23:32.051Z,39.07
2019-06-26T04:28:34.622Z,19.03
2019-06-26T04:33:37.199Z,23.00
2019-06-26T04:38:40.257Z,18.20
2019-06-26T04:43:42.705Z,21.70
2019-06-26T04:48:46.537Z,25.93
2019-06-26T04:53:49.056Z,14.50
2019-06-26T04:58:51.560Z,13.00
2019-06-26T05:03:54.238Z,17.33
2019-06-26T05:08:57.297Z,17.47
2019-06-26T05:13:59.762Z,22.30
2019-06-26T05:19:03.349Z,21.13
2019-06-26T05:24:06.724Z,17.20
2019-06-26T05:29:09.145Z,22.00
2019-06-26T05:34:11.607Z,17.00
2019-06-26T05:39:14.024Z,20.87
2019-06-26T05:44:17.239Z,19.10
2019-06-26T05:49:20.107Z,23.23
2019-06-26T05:54:22.466Z,15.10
2019-06-26T05:59:24.957Z,10.98
2019-06-26T06:04:27.516Z,17.20
2019-06-26T06:09:30.053Z,11.65
2019-06-26T06:14:32.867Z,17.70
2019-06-26T06:19:35.447Z,12.03
2019-06-26T06:24:37.796Z,18.10
2019-06-26T06:29:40.250Z,16.73
2019-06-26T06:34:42.615Z,12.25
2019-06-26T06:39:45.137Z,14.35
2019-06-26T06:44:47.644Z,15.03
2019-06-26T06:49:50.025Z,15.68
2019-06-26T06:54:52.923Z,30.80
2019-06-26T06:59:55.316Z,14.78
2019-06-26T07:04:57.947Z,36.35
2019-06-26T07:10:00.763Z,17.85
2019-06-26T07:15:04.452Z,12.55
2019-06-26T07:20:07.940Z,12.80
2019-06-26T07:25:10.345Z,16.80
2019-06-26T07:30:13.374Z,19.90
2019-06-26T07:35:16.163Z,12.47
2019-06-26T07:40:18.714Z,14.07
2019-06-26T07:45:24.035Z,15.08
2019-06-26T07:50:25.546Z,15.80
2019-06-26T07:55:28.016Z,10.35
2019-06-26T08:00:31.786Z,16.95
2019-06-26T08:05:34.713Z,17.00
2019-06-26T08:10:37.147Z,12.70
2019-06-26T08:15:39.627Z,14.25
2019-06-26T08:20:55.451Z,10.93
2019-06-26T08:25:46.476Z,18.65
2019-06-26T08:30:48.862Z,14.30
2019-06-26T08:35:51.424Z,11.93
2019-06-26T08:40:53.982Z,10.45
2019-06-26T08:45:56.452Z,11.48
2019-06-26T08:50:59.132Z,8.30
2019-06-26T08:56:02.222Z,9.10
2019-06-26T09:01:05.042Z,6.67
2019-06-26T09:06:07.735Z,13.03
2019-06-26T09:11:10.198Z,9.45
2019-06-26T09:16:12.719Z,9.48
2019-06-26T09:21:15.354Z,8.30
2019-06-26T09:26:17.981Z,11.25
2019-06-26T09:31:20.593Z,9.10
2019-06-26T09:36:23.443Z,8.70
2019-06-26T09:41:25.995Z,6.22
2019-06-26T09:46:30.205Z,7.58
2019-06-26T09:51:32.585Z,6.58
2019-06-26T09:56:35.094Z,10.43
2019-06-26T10:01:39.541Z,6.75
2019-06-26T10:06:42.240Z,5.75
2019-06-26T10:11:44.595Z,49.75
2019-06-26T10:16:47.046Z,10.75
2019-06-26T10:21:49.428Z,10.98
2019-06-26T10:26:52.068Z,8.03
2019-06-26T10:31:54.685Z,39.35
2019-06-26T10:36:57.903Z,8.30
2019-06-26T10:42:00.324Z,7.60
2019-06-26T10:47:03.043Z,25.32
2019-06-26T10:52:05.995Z,10.32
2019-06-26T10:57:09.446Z,8.30
2019-06-26T11:02:11.789Z,10.93
2019-06-26T11:07:14.483Z,40.33
2019-06-26T11:12:16.896Z,7.28
2019-06-26T11:17:19.359Z,11.50
2019-06-26T11:22:22.077Z,26.95
2019-06-26T11:27:24.468Z,13.28
2019-06-26T11:32:26.976Z,11.88
2019-06-26T11:37:29.398Z,15.25
2019-06-26T11:42:32.818Z,7.67
2019-06-26T11:47:35.688Z,12.68
2019-06-26T11:52:38.080Z,10.28
2019-06-26T11:57:40.458Z,10.32
2019-06-26T12:02:42.783Z,10.85
2019-06-26T12:07:45.362Z,12.73
2019-06-26T12:12:48.083Z,10.48
2019-06-26T12:17:50.513Z,9.95
2019-06-26T12:22:52.980Z,12.00
2019-06-26T12:27:56.806Z,11.48
2019-06-26T12:33:03.407Z,8.25
2019-06-26T12:38:03.613Z,15.63
2019-06-26T12:43:06.303Z,9.15
2019-06-26T12:48:08.747Z,20.60
2019-06-26T12:53:11.227Z,9.65
2019-06-26T12:58:19.245Z,6.30
2019-06-26T13:03:17.983Z,5.72
2019-06-26T13:08:20.396Z,17.27
2019-06-26T13:13:22.840Z,9.68
2019-06-26T13:18:26.278Z,8.35
2019-06-26T13:23:28.674Z,13.43
2019-06-26T13:28:31.142Z,9.98
2019-06-26T13:33:33.486Z,6.62
2019-06-26T13:38:36.266Z,9.83
2019-06-26T13:43:38.795Z,8.48
2019-06-26T13:48:42.232Z,13.88
2019-06-26T13:53:44.873Z,7.15
2019-06-26T13:58:47.715Z,8.73
2019-06-26T14:03:50.170Z,8.15
2019-06-26T14:08:52.767Z,5.33
2019-06-26T14:13:55.158Z,9.90
2019-06-26T14:18:57.596Z,10.63
2019-06-26T14:24:00.218Z,10.28
2019-06-26T14:29:02.904Z,23.85
2019-06-26T14:34:05.323Z,24.70
2019-06-26T14:39:08.330Z,10.20
2019-06-26T14:44:11.048Z,14.43
2019-06-26T14:49:26.101Z,30.35
2019-06-26T14:54:30.579Z,48.75
2019-06-26T14:59:34.312Z,40.45
2019-06-26T15:04:38.453Z,9.28
2019-06-26T15:09:41.787Z,19.30
2019-06-26T15:14:45.227Z,9.60
2019-06-26T15:19:49.841Z,10.72
2019-06-26T15:24:53.436Z,11.97
2019-06-26T15:29:56.255Z,6.72
2019-06-26T15:34:59.065Z,9.78
2019-06-26T15:40:01.568Z,7.17
2019-06-26T15:45:05.483Z,10.30
2019-06-26T15:50:10.686Z,10.90
2019-06-26T15:55:13.068Z,7.12
2019-06-26T16:00:15.996Z,11.85
2019-06-26T16:05:18.549Z,15.38
2019-06-26T16:10:20.985Z,11.00
2019-06-26T16:15:23.708Z,8.80
2019-06-26T16:20:27.070Z,12.18
2019-06-26T16:25:32.412Z,11.30
2019-06-26T16:30:35.317Z,16.82
2019-06-26T16:35:38.230Z,10.40
2019-06-26T16:40:41.375Z,12.18
2019-06-26T16:45:43.924Z,9.80
2019-06-26T16:50:46.444Z,10.85
2019-06-26T16:55:49.453Z,13.72
2019-06-26T17:00:54.640Z,13.68
2019-06-26T17:05:57.039Z,10.53
2019-06-26T17:11:00.156Z,19.17
2019-06-26T17:16:02.665Z,12.88
2019-06-26T17:21:05.055Z,7.08
2019-06-26T17:26:07.475Z,10.90
2019-06-26T17:31:09.946Z,8.68
2019-06-26T17:36:12.715Z,11.43
2019-06-26T17:41:15.112Z,8.68
2019-06-26T17:46:17.584Z,14.98
2019-06-26T17:51:20.108Z,9.93
2019-06-26T17:56:23.305Z,9.00
2019-06-26T18:01:25.715Z,16.77
2019-06-26T18:06:29.723Z,8.25
2019-06-26T18:11:32.712Z,15.63
2019-06-26T18:16:35.207Z,12.85
2019-06-26T18:21:37.639Z,13.50
2019-06-26T18:26:40.377Z,11.33
2019-06-26T18:31:42.865Z,12.10
2019-06-26T18:36:48.083Z,14.45
2019-06-26T18:41:51.249Z,11.88
2019-06-26T18:46:53.974Z,13.60
2019-06-26T18:51:56.383Z,11.65
2019-06-26T18:56:59.201Z,16.62
2019-06-26T19:02:03.428Z,15.83
2019-06-26T19:07:07.362Z,11.30
2019-06-26T19:12:10.109Z,11.08
2019-06-26T19:17:13.224Z,17.55
2019-06-26T19:22:15.945Z,16.40
2019-06-26T19:27:21.956Z,18.87
2019-06-26T19:32:24.944Z,8.30
2019-06-26T19:37:28.052Z,10.45
2019-06-26T19:42:31.646Z,15.25
2019-06-26T19:47:34.733Z,15.15
2019-06-26T19:52:54.284Z,16.07
2019-06-26T19:58:39.486Z,10.08
2019-06-26T20:04:03.863Z,20.00
2019-06-26T20:09:06.591Z,22.37
2019-06-26T20:14:09.118Z,16.87
2019-06-26T20:19:11.723Z,17.32
2019-06-26T20:24:14.349Z,15.10
2019-06-26T20:29:16.869Z,11.88
2019-06-26T20:34:19.301Z,11.93
2019-06-26T20:39:21.917Z,16.85
2019-06-26T20:44:24.576Z,13.32
2019-06-26T20:49:27.407Z,17.42
2019-06-26T20:54:30.347Z,17.50
2019-06-26T20:59:32.868Z,17.50
2019-06-26T21:04:35.499Z,15.50
2019-06-26T21:09:38.117Z,13.93
2019-06-26T21:14:40.791Z,19.17
2019-06-26T21:19:43.303Z,14.98
2019-06-26T21:24:45.737Z,19.50
2019-06-26T21:29:48.136Z,20.05
2019-06-26T21:34:50.552Z,23.57
2019-06-26T21:39:52.964Z,11.33
2019-06-26T21:44:55.445Z,18.07
2019-06-26T21:49:57.924Z,17.57
2019-06-26T21:55:00.337Z,17.12
2019-06-26T22:00:21.291Z,19.70
2019-06-26T22:05:41.981Z,18.23
2019-06-26T22:11:02.755Z,14.77
2019-06-26T22:16:05.403Z,13.05
2019-06-26T22:21:08.075Z,14.50
2019-06-26T22:26:13.998Z,15.18
2019-06-26T22:31:14.847Z,16.27
2019-06-26T22:36:17.255Z,20.20
2019-06-26T22:41:19.673Z,17.82
2019-06-26T22:46:22.100Z,20.60
2019-06-26T22:51:24.533Z,22.00
2019-06-26T22:56:26.979Z,22.57
2019-06-26T23:01:29.344Z,19.98
2019-06-26T23:06:31.740Z,29.03
2019-06-26T23:11:34.053Z,19.83
2019-06-26T23:16:36.620Z,18.33
2019-06-26T23:21:38.936Z,20.83
2019-06-26T23:26:41.334Z,22.70
2019-06-26T23:31:43.728Z,25.17
2019-06-26T23:36:46.448Z,19.70
2019-06-26T23:41:48.960Z,21.93
2019-06-26T23:46:51.463Z,31.30
2019-06-26T23:51:53.764Z,19.93
2019-06-26T23:56:56.468Z,20.63
